createdAt,value
2022-12-18T00:02:40.886Z,-4.7
2022-12-18T00:04:52.772Z,-4.8
2022-12-18T00:06:56.492Z,-5.3
2022-12-18T00:09:00.193Z,-4.3
2022-12-18T00:13:10.465Z,-5
2022-12-18T00:15:13.860Z,-4.8
2022-12-18T00:17:20.055Z,-4.6
2022-12-18T00:19:23.779Z,-5.5
2022-12-18T00:23:33.765Z,-4.5
2022-12-18T00:25:37.449Z,-4.8
2022-12-18T00:27:41.197Z,-5
2022-12-18T00:36:39.953Z,-5.5
2022-12-18T00:38:43.640Z,-4.6
2022-12-18T00:40:47.310Z,-4.6
2022-12-18T00:42:53.730Z,-5.5
2022-12-18T00:47:00.956Z,-5.6
2022-12-18T00:49:07.182Z,-4.7
2022-12-18T00:51:10.883Z,-5.8
2022-12-18T00:53:14.573Z,-5.8
2022-12-18T00:55:20.837Z,-5.8
2022-12-18T00:57:24.542Z,-5.1
2022-12-18T00:59:28.242Z,-5.8
2022-12-18T01:01:34.650Z,-5.6
2022-12-18T01:03:38.422Z,-5.1
2022-12-18T01:05:41.838Z,-4.8
2022-12-18T01:07:48.120Z,-6
2022-12-18T01:09:51.794Z,-5.6
2022-12-18T01:11:55.527Z,-5.2
2022-12-18T01:24:22.838Z,-5.1
2022-12-18T01:26:29.063Z,-5.2
2022-12-18T01:30:36.471Z,-6.3
2022-12-18T01:32:42.710Z,-5.6
2022-12-18T01:34:46.401Z,-6.3
2022-12-18T01:36:50.085Z,-5.9
2022-12-18T01:38:56.263Z,-6.4
2022-12-18T01:41:00.142Z,-6.5
2022-12-18T01:43:03.736Z,-5.9
2022-12-18T01:56:31.274Z,-6.3
2022-12-18T01:58:34.967Z,-5.5
2022-12-18T02:00:41.267Z,-6.4
2022-12-18T02:02:45.037Z,-6.4
2022-12-18T02:04:49.657Z,-5.7
2022-12-18T02:06:54.783Z,-6.1
2022-12-18T02:08:58.494Z,-6.5
2022-12-18T02:11:02.159Z,-6.7
2022-12-18T02:13:08.381Z,-5.9
2022-12-18T02:15:12.065Z,-6.4
2022-12-18T02:17:15.772Z,-6.4
2022-12-18T02:19:21.990Z,-6
2022-12-18T02:21:25.695Z,-6.1
2022-12-18T02:23:29.352Z,-6.1
2022-12-18T02:25:35.590Z,-6.9
2022-12-18T02:27:39.279Z,-6
2022-12-18T02:29:42.951Z,-6.8
2022-12-18T02:31:49.171Z,-6.9
2022-12-18T02:33:52.834Z,-6.1
2022-12-18T02:35:56.559Z,-6.7
2022-12-18T02:38:02.788Z,-6.9
2022-12-18T02:40:06.481Z,-6.9
2022-12-18T02:42:10.105Z,-6.3
2022-12-18T02:44:16.346Z,-6.1
2022-12-18T02:46:20.124Z,-6.2
2022-12-18T02:48:23.725Z,-6.7
2022-12-18T02:50:29.924Z,-6.8
2022-12-18T02:52:33.602Z,-6.3
2022-12-18T02:56:43.536Z,-6.3
2022-12-18T03:00:50.921Z,-6.6
2022-12-18T03:02:57.263Z,-6.8
2022-12-18T03:09:10.684Z,-6.4
2022-12-18T03:11:14.373Z,-7.2
2022-12-18T03:13:18.058Z,-6.6
2022-12-18T03:15:24.242Z,-6.7
2022-12-18T03:17:27.928Z,-6.8
2022-12-18T03:19:31.588Z,-6.4
2022-12-18T03:21:37.817Z,-7.3
2022-12-18T03:23:41.910Z,-6.5
2022-12-18T03:25:45.170Z,-7.3
2022-12-18T03:27:51.337Z,-6.5
2022-12-18T03:29:55.054Z,-7.2
2022-12-18T03:31:58.730Z,-7.2
2022-12-18T03:34:04.912Z,-7.4
2022-12-18T03:36:08.612Z,-6.5
2022-12-18T03:38:12.252Z,-6.5
2022-12-18T03:42:22.121Z,-6.8
2022-12-18T03:44:25.806Z,-6.5
2022-12-18T03:46:32.059Z,-7.4
2022-12-18T03:48:35.681Z,-6.6
2022-12-18T03:50:39.329Z,-6.8
2022-12-18T04:00:02.616Z,-7.4
2022-12-18T04:04:12.621Z,-7.2
2022-12-18T04:06:16.137Z,-7.2
2022-12-18T04:08:22.366Z,-7.1
2022-12-18T04:10:26.044Z,-7.4
2022-12-18T04:12:29.698Z,-7.6
2022-12-18T04:16:39.563Z,-7.1
2022-12-18T04:18:43.221Z,-6.9
2022-12-18T04:20:49.413Z,-7.2
2022-12-18T04:22:53.099Z,-7.1
2022-12-18T04:27:02.964Z,-7.2
2022-12-18T04:29:06.635Z,-6.9
2022-12-18T04:31:10.337Z,-7.3
2022-12-18T04:40:22.963Z,-7.4
2022-12-18T04:44:32.823Z,-7.2
2022-12-18T04:46:36.534Z,-7.5
2022-12-18T04:48:42.710Z,-7.3
2022-12-18T04:50:46.404Z,-7.2
2022-12-18T04:52:50.038Z,-6.9
2022-12-18T04:54:56.247Z,-7.6
2022-12-18T04:56:59.899Z,-7.6
2022-12-18T04:59:03.529Z,-6.9
2022-12-18T05:01:09.791Z,-7.2
2022-12-18T05:03:13.585Z,-7.3
2022-12-18T05:05:17.124Z,-6.9
2022-12-18T05:09:27.039Z,-7.3
2022-12-18T05:11:30.637Z,-7.3
2022-12-18T05:13:37.160Z,-7.5
2022-12-18T05:17:44.160Z,-7.3
2022-12-18T05:21:54.075Z,-7.1
2022-12-18T05:26:03.922Z,-7.5
2022-12-18T05:28:07.586Z,-7.6
2022-12-18T05:30:11.281Z,-7.6
2022-12-18T05:32:17.440Z,-6.8
2022-12-18T05:34:21.128Z,-7
2022-12-18T05:36:24.800Z,-7.2
2022-12-18T05:38:30.999Z,-7.3
2022-12-18T05:40:34.840Z,-6.8
2022-12-18T05:44:44.534Z,-6.9
2022-12-18T05:46:48.236Z,-7.5
2022-12-18T05:48:51.817Z,-7.4
2022-12-18T05:50:58.026Z,-7.5
2022-12-18T05:53:01.708Z,-7.2
2022-12-18T05:55:05.374Z,-7.4
2022-12-18T05:57:11.575Z,-7.3
2022-12-18T05:59:15.244Z,-7.4
2022-12-18T06:01:18.957Z,-6.8
2022-12-18T06:06:26.398Z,-7.1
2022-12-18T06:08:29.984Z,-6.9
2022-12-18T06:10:33.651Z,-7.5
2022-12-18T06:12:39.875Z,-7.1
2022-12-18T06:14:43.537Z,-7.1
2022-12-18T06:16:47.196Z,-7.2
2022-12-18T06:18:53.393Z,-7.6
2022-12-18T06:20:57.104Z,-7.5
2022-12-18T06:23:00.769Z,-7.5
2022-12-18T06:25:07.010Z,-7.1
2022-12-18T06:27:10.652Z,-7.4
2022-12-18T06:29:14.282Z,-7.2
2022-12-18T06:31:20.512Z,-7.7
2022-12-18T06:33:24.153Z,-7.5
2022-12-18T06:35:27.805Z,-7.5
2022-12-18T06:41:41.318Z,-7.9
2022-12-18T06:43:47.495Z,-7.4
2022-12-18T06:45:51.211Z,-7.9
2022-12-18T06:47:54.797Z,-8
2022-12-18T06:50:01.036Z,-8
2022-12-18T06:52:04.655Z,-7.3
2022-12-18T06:54:08.324Z,-7.5
2022-12-18T06:56:14.499Z,-7.9
2022-12-18T06:58:18.172Z,-8.1
2022-12-18T07:00:21.839Z,-7.8
2022-12-18T07:02:28.146Z,-8
2022-12-18T07:04:31.680Z,-7.4
2022-12-18T07:06:35.325Z,-7.5
2022-12-18T07:08:41.568Z,-7.8
2022-12-18T07:10:48.205Z,-7.9
2022-12-18T07:12:49.065Z,-7.6
2022-12-18T07:14:55.063Z,-7.5
2022-12-18T07:16:58.867Z,-7.9
2022-12-18T07:19:02.397Z,-7.3
2022-12-18T07:21:08.586Z,-7.5
2022-12-18T07:23:12.213Z,-7.3
2022-12-18T07:27:22.109Z,-7.2
2022-12-18T07:33:35.645Z,-7.4
2022-12-18T07:35:39.280Z,-7.6
2022-12-18T07:37:42.950Z,-7.1
2022-12-18T07:39:49.156Z,-7.2
2022-12-18T07:41:52.761Z,-7.1
2022-12-18T07:43:56.456Z,-7.1
2022-12-18T07:46:02.662Z,-7.1
2022-12-18T07:48:06.365Z,-7
2022-12-18T07:50:10.009Z,-7
2022-12-18T07:52:16.222Z,-7.1
2022-12-18T07:54:19.901Z,-7.1
2022-12-18T07:56:28.253Z,-7
2022-12-18T07:58:29.735Z,-7
2022-12-18T08:00:33.455Z,-7
2022-12-18T08:04:43.257Z,-6.8
2022-12-18T08:06:48.325Z,-6.8
2022-12-18T08:10:56.809Z,-6.6
2022-12-18T08:13:04.904Z,-6.6
2022-12-18T08:15:04.096Z,-6.5
2022-12-18T08:32:42.283Z,-5.7
2022-12-18T08:38:55.862Z,-5.5
2022-12-18T08:40:59.531Z,-5.4
2022-12-18T08:43:03.167Z,-5.4
2022-12-18T08:45:09.464Z,-5.3
2022-12-18T08:47:13.144Z,-5.3
2022-12-18T08:49:16.800Z,-5.1
2022-12-18T08:51:23.015Z,-5.1
2022-12-18T08:53:29.249Z,-5
2022-12-18T08:55:30.407Z,-4.9
2022-12-18T08:57:36.629Z,-4.8
2022-12-18T08:59:40.314Z,-4.7
2022-12-18T09:01:44.048Z,-4.7
2022-12-18T09:03:50.236Z,-4.6
2022-12-18T09:05:53.915Z,-4.6
2022-12-18T09:07:57.609Z,-4.5
2022-12-18T09:10:03.849Z,-4.4
2022-12-18T09:12:07.570Z,-4.2
2022-12-18T09:14:11.248Z,-3.8
2022-12-18T09:20:24.864Z,-2.7
2022-12-18T09:22:31.106Z,-2.5
2022-12-18T09:24:34.813Z,-2.2
2022-12-18T09:26:38.590Z,-1.7
2022-12-18T09:28:44.755Z,-2.2
2022-12-18T09:30:48.562Z,-2.6
2022-12-18T09:32:52.161Z,-2.6
2022-12-18T09:37:02.128Z,-2.7
2022-12-18T09:43:15.782Z,-2.7
2022-12-18T09:45:19.489Z,-2.8
2022-12-18T09:47:25.743Z,-2.8
2022-12-18T09:51:33.155Z,-3
2022-12-18T09:53:39.428Z,-3.1
2022-12-18T09:55:43.856Z,-3
2022-12-18T09:57:46.876Z,-2.9
2022-12-18T09:59:53.104Z,-2.8
2022-12-18T10:01:57.027Z,-2.8
2022-12-18T10:04:00.628Z,-2.7
2022-12-18T10:06:06.851Z,-2.8
2022-12-18T10:08:10.568Z,-2.8
2022-12-18T10:10:14.301Z,-2.8
2022-12-18T10:12:20.543Z,-2.8
2022-12-18T10:14:24.303Z,-2.8
2022-12-18T10:16:28.011Z,-2.7
2022-12-18T10:18:34.262Z,-2.6
2022-12-18T10:22:41.717Z,-2.8
2022-12-18T10:31:40.624Z,-2.7
2022-12-18T10:33:44.256Z,-2.6
2022-12-18T10:35:47.980Z,-2.6
2022-12-18T10:37:54.258Z,-2.6
2022-12-18T10:39:57.981Z,-2.5
2022-12-18T10:42:01.725Z,-2.5
2022-12-18T10:44:07.955Z,-2.5
2022-12-18T10:46:11.812Z,-2.5
2022-12-18T10:48:15.431Z,-2.5
2022-12-18T10:50:21.684Z,-2.5
2022-12-18T10:52:25.407Z,-2.4
2022-12-18T10:54:29.154Z,-2.4
2022-12-18T11:03:48.549Z,-2.2
2022-12-18T11:05:54.724Z,-2.1
2022-12-18T11:16:15.700Z,-1.8
2022-12-18T11:20:25.665Z,-1.8
2022-12-18T11:22:29.420Z,-1.7
2022-12-18T11:24:35.673Z,-1.7
2022-12-18T11:26:39.406Z,-1.7
2022-12-18T11:28:43.590Z,-1.6
2022-12-18T11:32:53.166Z,-1.6
2022-12-18T11:37:03.176Z,-1.6
2022-12-18T11:39:06.942Z,-1.5
2022-12-18T11:41:10.679Z,-1.5
2022-12-18T11:46:20.230Z,-1.5
2022-12-18T12:02:55.038Z,-1.3
2022-12-18T12:09:08.715Z,-1.2
2022-12-18T12:15:22.368Z,-1.1
2022-12-18T12:19:32.424Z,-1.1
2022-12-18T12:21:36.161Z,-1.2
2022-12-18T12:23:42.798Z,-1.1
2022-12-18T12:25:46.076Z,-1.1
2022-12-18T12:27:49.840Z,-1
2022-12-18T12:31:59.884Z,-1
2022-12-18T12:34:03.620Z,-1
2022-12-18T12:38:13.679Z,-1
2022-12-18T12:40:49.128Z,-1
2022-12-18T12:42:23.658Z,-1
2022-12-18T12:44:27.415Z,-0.9
2022-12-18T12:46:31.144Z,-0.9
2022-12-18T12:48:37.962Z,-0.9
2022-12-18T12:50:41.128Z,-0.9
2022-12-18T12:52:44.856Z,-0.9
2022-12-18T12:54:51.140Z,-0.9
2022-12-18T12:56:54.926Z,-0.9
2022-12-18T12:58:58.682Z,-0.8
2022-12-18T13:01:04.950Z,-0.9
2022-12-18T13:03:08.645Z,-0.9
2022-12-18T13:05:12.358Z,-0.9
2022-12-18T13:07:18.544Z,-0.9
2022-12-18T13:09:22.327Z,-0.9
2022-12-18T13:11:26.031Z,-0.9
2022-12-18T13:13:32.540Z,-0.9
2022-12-18T13:15:38.267Z,-1
2022-12-18T13:17:39.765Z,-1
2022-12-18T13:19:46.036Z,-1
2022-12-18T13:21:49.703Z,-1
2022-12-18T13:23:53.468Z,-1
2022-12-18T13:25:59.777Z,-1
2022-12-18T13:28:03.497Z,-1
2022-12-18T13:30:07.165Z,-1
2022-12-18T13:32:18.357Z,-1.1
2022-12-18T13:34:26.278Z,-1
2022-12-18T13:36:20.859Z,-1
2022-12-18T13:43:35.485Z,-1
2022-12-18T13:45:39.207Z,-1
2022-12-18T13:52:54.865Z,-1
2022-12-18T13:54:58.639Z,-1
2022-12-18T13:57:04.912Z,-1
2022-12-18T13:59:08.699Z,-1
2022-12-18T14:01:12.560Z,-1
2022-12-18T14:03:22.445Z,-1
2022-12-18T14:05:22.366Z,-1
2022-12-18T14:07:26.127Z,-1
2022-12-18T14:09:32.598Z,-1
2022-12-18T14:11:36.216Z,-1.1
2022-12-18T14:13:39.931Z,-1
2022-12-18T14:15:46.229Z,-1
2022-12-18T14:17:49.938Z,-1.1
2022-12-18T14:19:53.610Z,-1.1
2022-12-18T14:21:59.864Z,-1.1
2022-12-18T14:24:03.509Z,-1.1
2022-12-18T14:26:07.169Z,-1.1
2022-12-18T14:31:15.442Z,-1.1
2022-12-18T14:33:19.013Z,-1.1
2022-12-18T14:35:22.808Z,-1.1
2022-12-18T14:39:32.826Z,-1.1
2022-12-18T14:41:36.595Z,-1.1
2022-12-18T14:43:43.181Z,-1.2
2022-12-18T14:47:50.419Z,-1.1
2022-12-18T14:52:00.407Z,-1.1
2022-12-18T14:54:04.136Z,-1.1
2022-12-18T15:01:18.815Z,-1.1
2022-12-18T15:03:22.442Z,-1.1
2022-12-18T15:05:28.642Z,-1.1
2022-12-18T15:07:32.345Z,-1.1
2022-12-18T15:09:36.099Z,-1.1
2022-12-18T15:11:42.384Z,-1
2022-12-18T15:13:46.152Z,-1
2022-12-18T15:15:49.973Z,-1
2022-12-18T15:17:56.047Z,-1
2022-12-18T15:19:59.808Z,-1
2022-12-18T15:22:06.645Z,-1
2022-12-18T15:27:09.693Z,-1.1
2022-12-18T15:38:32.772Z,-1.1
2022-12-18T15:40:36.546Z,-1.1
2022-12-18T15:42:42.772Z,-1.1
2022-12-18T15:46:51.882Z,-1.1
2022-12-18T15:49:01.752Z,-1.1
2022-12-18T15:51:01.853Z,-1.1
2022-12-18T15:57:15.560Z,-1.1
2022-12-18T15:59:19.260Z,-1
2022-12-18T16:01:25.596Z,-0.9
2022-12-18T16:03:29.334Z,-0.9
2022-12-18T16:05:32.996Z,-0.9
2022-12-18T16:14:31.968Z,-1.1
2022-12-18T16:20:45.868Z,-0.9
2022-12-18T16:22:49.649Z,-1
2022-12-18T16:24:53.373Z,-1
2022-12-18T16:26:59.661Z,-1
2022-12-18T16:29:03.413Z,-1
2022-12-18T16:31:07.193Z,-0.9
2022-12-18T16:33:13.467Z,-1
2022-12-18T16:35:17.205Z,-1
2022-12-18T16:37:20.870Z,-1
2022-12-18T16:39:27.153Z,-0.9
2022-12-18T16:41:30.933Z,-1
2022-12-18T16:43:34.649Z,-0.9
2022-12-18T16:45:40.948Z,-1
2022-12-18T16:47:44.664Z,-0.9
2022-12-18T16:49:48.357Z,-0.9
2022-12-18T16:51:54.682Z,-0.9
2022-12-18T16:53:58.410Z,-0.9
2022-12-18T16:56:02.158Z,-0.9
2022-12-18T17:00:17.838Z,-0.8
2022-12-18T17:04:27.894Z,-0.7
2022-12-18T17:06:31.649Z,-0.7
2022-12-18T17:10:41.696Z,-0.6
2022-12-18T17:17:19.829Z,-0.5
2022-12-18T17:18:59.151Z,-0.5
2022-12-18T17:21:02.896Z,-0.4
2022-12-18T17:23:09.094Z,-0.4
2022-12-18T17:25:12.835Z,-0.5
2022-12-18T17:34:30.733Z,-0.3
2022-12-18T17:36:34.383Z,-0.3
2022-12-18T17:38:40.678Z,-0.3
2022-12-18T17:40:46.419Z,-0.3
2022-12-18T17:42:48.203Z,-0.2
2022-12-18T17:46:58.210Z,-0.3
2022-12-18T17:51:08.065Z,-0.3
2022-12-18T17:53:11.845Z,-0.3
2022-12-18T17:55:15.565Z,-0.3
2022-12-18T18:01:29.389Z,-0.3
2022-12-18T18:06:39.104Z,-0.3
2022-12-18T18:08:40.455Z,-0.4
2022-12-18T18:10:44.094Z,-0.3
2022-12-18T18:12:50.281Z,-0.4
2022-12-18T18:14:53.959Z,-0.3
2022-12-18T18:16:58.200Z,-0.4
2022-12-18T18:19:04.013Z,-0.3
2022-12-18T18:21:07.747Z,-0.4
2022-12-18T18:23:11.490Z,-0.3
2022-12-18T18:27:21.428Z,-0.4
2022-12-18T18:31:31.386Z,-0.4
2022-12-18T18:33:35.001Z,-0.4
2022-12-18T18:35:54.238Z,-0.3
2022-12-18T18:37:45.060Z,-0.4
2022-12-18T18:39:48.857Z,-0.3
2022-12-18T18:41:52.567Z,-0.3
2022-12-18T18:47:00.283Z,-0.4
2022-12-18T18:49:03.970Z,-0.4
2022-12-18T18:51:07.680Z,-0.4
2022-12-18T18:57:30.258Z,-0.4
2022-12-18T18:59:31.682Z,-0.4
2022-12-18T19:01:34.995Z,-0.4
2022-12-18T19:08:50.502Z,-0.4
2022-12-18T19:10:57.661Z,-0.5
2022-12-18T19:13:00.410Z,-0.5
2022-12-18T19:15:04.060Z,-0.5
2022-12-18T19:17:07.735Z,-0.4
2022-12-18T19:22:19.829Z,-0.5
2022-12-18T19:24:23.550Z,-0.5
2022-12-18T19:26:28.544Z,-0.5
2022-12-18T19:28:33.571Z,-0.5
2022-12-18T19:30:37.343Z,-0.5
2022-12-18T19:32:41.111Z,-0.5
2022-12-18T19:34:47.387Z,-0.4
2022-12-18T19:38:54.822Z,-0.4
2022-12-18T19:41:01.077Z,-0.4
2022-12-18T19:43:04.867Z,-0.4
2022-12-18T19:45:08.619Z,-0.4
2022-12-18T19:47:14.909Z,-0.4
2022-12-18T19:49:18.650Z,-0.4
2022-12-18T19:51:22.365Z,-0.3
2022-12-18T19:58:38.025Z,-0.3
2022-12-18T20:00:41.791Z,-0.3
2022-12-18T20:02:48.334Z,-0.3
2022-12-18T20:04:51.817Z,-0.2
2022-12-18T20:06:55.571Z,-0.2
2022-12-18T20:15:15.667Z,-0.2
2022-12-18T20:17:19.366Z,-0.2
2022-12-18T20:19:23.149Z,-0.2
2022-12-18T20:21:29.418Z,-0.2
2022-12-18T20:23:33.233Z,-0.2
2022-12-18T20:31:50.680Z,-0.2
2022-12-18T20:36:00.647Z,-0.2
2022-12-18T20:40:10.705Z,-0.2
2022-12-18T20:44:22.797Z,-0.1
2022-12-18T20:48:28.130Z,-0.2
2022-12-18T20:56:45.667Z,-0.2
2022-12-18T20:58:54.608Z,-0.3
2022-12-18T21:00:55.582Z,-0.2
2022-12-18T21:02:59.405Z,-0.4
2022-12-18T21:05:05.477Z,-0.4
2022-12-18T21:07:09.245Z,-0.4
2022-12-18T21:09:12.991Z,-0.4
2022-12-18T21:11:19.245Z,-0.4
2022-12-18T21:13:22.897Z,-0.3
2022-12-18T21:15:28.738Z,-0.2
2022-12-18T21:17:34.549Z,-0.3
2022-12-18T21:19:36.616Z,-0.2
2022-12-18T21:21:40.368Z,-0.2
2022-12-18T21:30:39.379Z,-0.5
2022-12-18T21:32:43.040Z,-0.4
2022-12-18T21:38:56.899Z,-0.4
2022-12-18T21:41:00.647Z,-0.6
2022-12-18T21:43:06.953Z,-0.6
2022-12-18T21:45:10.684Z,-0.6
2022-12-18T21:47:22.879Z,-0.7
2022-12-18T21:49:20.649Z,-0.6
2022-12-18T21:51:24.317Z,-0.7
2022-12-18T21:53:28.062Z,-0.7
2022-12-18T21:55:34.334Z,-0.5
2022-12-18T21:57:38.077Z,-0.6
2022-12-18T21:59:41.843Z,-0.2
2022-12-18T22:01:48.231Z,-0.7
2022-12-18T22:06:06.773Z,-0.8
2022-12-18T22:08:01.841Z,-0.6
2022-12-18T22:10:05.530Z,-0.7
2022-12-18T22:12:09.254Z,-0.4
2022-12-18T22:14:15.576Z,-0.8
2022-12-18T22:16:19.346Z,-0.5
2022-12-18T22:18:23.055Z,-0.7
2022-12-18T22:20:30.035Z,-0.8
2022-12-18T22:22:33.046Z,-0.8
2022-12-18T22:24:36.750Z,-0.8
2022-12-18T22:26:43.160Z,-0.8
2022-12-18T22:28:46.799Z,-0.8
2022-12-18T22:30:50.636Z,-0.5
2022-12-18T22:35:06.922Z,-0.8
2022-12-18T22:37:04.378Z,-0.1
2022-12-18T22:39:10.566Z,-0.3
2022-12-18T22:41:14.230Z,-0.2
2022-12-18T22:43:18.034Z,-0.3
2022-12-18T22:45:24.318Z,-0.5
2022-12-18T22:47:30.131Z,-0.5
2022-12-18T22:49:31.702Z,-0.6
2022-12-18T22:51:37.974Z,-0.1
2022-12-18T22:53:41.746Z,-0.4
2022-12-18T22:55:45.515Z,-0.4
2022-12-18T22:57:51.770Z,0.1
2022-12-18T22:59:55.426Z,0
2022-12-18T23:01:59.576Z,-0.2
2022-12-18T23:04:05.362Z,-0.6
2022-12-18T23:06:09.066Z,-0.8
2022-12-18T23:08:12.750Z,-0.8
2022-12-18T23:16:32.782Z,0.1
2022-12-18T23:18:36.491Z,-0.1
2022-12-18T23:20:40.176Z,0
2022-12-18T23:24:50.118Z,-0.7
2022-12-18T23:26:53.856Z,-0.3
2022-12-18T23:32:02.312Z,-0.5
2022-12-18T23:34:05.951Z,0
2022-12-18T23:36:09.690Z,0
2022-12-18T23:38:15.924Z,-0.7
2022-12-18T23:40:19.671Z,0
2022-12-18T23:42:23.402Z,-0.3
2022-12-18T23:44:29.682Z,0
2022-12-18T23:46:33.462Z,0.1
2022-12-18T23:48:37.058Z,0.1
2022-12-18T23:50:43.261Z,-0.7
2022-12-18T23:52:47.045Z,-0.7
2022-12-18T23:54:50.778Z,0.1
2022-12-18T23:59:00.867Z,0.1
